createdAt,value
2023-04-21T00:00:28.527Z,14.63
2023-04-21T00:02:56.686Z,14.73
2023-04-21T00:05:25.023Z,14.07
2023-04-21T00:07:53.133Z,13.97
2023-04-21T00:10:21.234Z,14.47
2023-04-21T00:12:49.343Z,13.67
2023-04-21T00:15:17.373Z,17.47
2023-04-21T00:17:47.135Z,14.60
2023-04-21T00:20:15.472Z,15.50
2023-04-21T00:22:43.803Z,16.83
2023-04-21T00:25:11.888Z,14.53
2023-04-21T00:27:40.002Z,14.33
2023-04-21T00:30:09.493Z,14.27
2023-04-21T00:32:38.460Z,13.43
2023-04-21T00:35:08.895Z,13.57
2023-04-21T00:37:37.292Z,13.63
2023-04-21T00:40:06.150Z,13.40
2023-04-21T00:42:34.352Z,12.93
2023-04-21T00:45:02.647Z,15.03
2023-04-21T00:47:32.273Z,14.83
2023-04-21T00:50:00.744Z,14.63
2023-04-21T00:52:30.835Z,12.30
2023-04-21T00:54:59.099Z,14.13
2023-04-21T00:57:28.784Z,16.80
2023-04-21T00:59:56.930Z,13.07
2023-04-21T01:02:26.340Z,15.33
2023-04-21T01:04:54.558Z,12.83
2023-04-21T01:07:22.774Z,13.33
2023-04-21T01:09:52.172Z,13.97
2023-04-21T01:12:20.531Z,12.43
2023-04-21T01:14:48.570Z,12.87
2023-04-21T01:17:18.991Z,13.23
2023-04-21T01:19:49.085Z,12.17
2023-04-21T01:22:18.776Z,12.87
2023-04-21T01:24:48.961Z,13.13
2023-04-21T01:27:19.305Z,12.93
2023-04-21T01:29:50.557Z,12.73
2023-04-21T01:32:20.946Z,12.00
2023-04-21T01:34:50.687Z,13.67
2023-04-21T01:37:23.052Z,13.23
2023-04-21T01:39:55.398Z,14.90
2023-04-21T01:42:26.036Z,12.70
2023-04-21T01:44:54.765Z,12.30
2023-04-21T01:47:23.113Z,13.60
2023-04-21T01:49:51.242Z,13.00
2023-04-21T01:52:21.832Z,12.63
2023-04-21T01:54:50.191Z,13.30
2023-04-21T01:57:18.982Z,12.03
2023-04-21T01:59:47.113Z,14.70
2023-04-21T02:02:15.311Z,14.90
2023-04-21T02:04:43.425Z,12.63
2023-04-21T02:07:11.379Z,12.33
2023-04-21T02:09:42.956Z,12.77
2023-04-21T02:12:11.304Z,12.53
2023-04-21T02:14:43.624Z,13.87
2023-04-21T02:17:11.832Z,12.40
2023-04-21T02:19:39.857Z,14.63
2023-04-21T02:22:08.470Z,13.10
2023-04-21T02:24:36.487Z,12.40
2023-04-21T02:27:06.154Z,12.10
2023-04-21T02:29:34.187Z,13.90
2023-04-21T02:32:10.783Z,12.93
2023-04-21T02:34:46.412Z,14.03
2023-04-21T02:37:14.507Z,15.73
2023-04-21T02:39:43.771Z,13.43
2023-04-21T02:42:13.184Z,13.73
2023-04-21T02:44:42.961Z,13.50
2023-04-21T02:47:10.958Z,13.67
2023-04-21T02:49:42.349Z,12.73
2023-04-21T02:52:10.610Z,13.27
2023-04-21T02:54:38.858Z,12.97
2023-04-21T02:57:06.899Z,13.07
2023-04-21T02:59:36.380Z,12.90
2023-04-21T03:02:04.869Z,13.50
2023-04-21T03:04:34.296Z,13.33
2023-04-21T03:07:02.586Z,13.73
2023-04-21T03:09:30.708Z,13.90
2023-04-21T03:12:00.664Z,13.23
2023-04-21T03:14:28.735Z,14.10
2023-04-21T03:16:58.230Z,13.10
2023-04-21T03:19:26.346Z,12.97
2023-04-21T03:21:54.420Z,14.57
2023-04-21T03:24:23.135Z,16.27
2023-04-21T03:26:51.384Z,14.83
2023-04-21T03:29:19.787Z,13.73
2023-04-21T03:31:48.114Z,13.60
2023-04-21T03:34:17.713Z,14.13
2023-04-21T03:36:46.134Z,13.70
2023-04-21T03:41:47.406Z,15.10
2023-04-21T03:44:20.381Z,14.07
2023-04-21T03:46:48.588Z,13.93
2023-04-21T03:49:18.102Z,14.93
2023-04-21T03:51:46.242Z,14.87
2023-04-21T03:54:14.334Z,14.63
2023-04-21T03:56:42.454Z,14.67
2023-04-21T03:59:10.701Z,15.03
2023-04-21T04:01:38.860Z,15.50
2023-04-21T04:04:07.019Z,15.03
2023-04-21T04:06:36.952Z,15.27
2023-04-21T04:09:05.092Z,14.93
2023-04-21T04:11:33.263Z,14.60
2023-04-21T04:14:02.204Z,15.10
2023-04-21T04:16:30.665Z,15.50
2023-04-21T04:18:58.735Z,14.30
2023-04-21T04:21:27.638Z,15.10
2023-04-21T04:23:57.043Z,14.97
2023-04-21T04:26:25.760Z,14.80
2023-04-21T04:28:56.365Z,15.17
2023-04-21T04:31:25.729Z,14.60
2023-04-21T04:33:55.477Z,14.97
2023-04-21T04:36:30.658Z,15.73
2023-04-21T04:39:04.557Z,15.73
2023-04-21T04:41:33.747Z,17.10
2023-04-21T04:44:01.863Z,15.03
2023-04-21T04:46:30.059Z,15.13
2023-04-21T04:48:58.143Z,15.27
2023-04-21T04:51:26.421Z,14.70
2023-04-21T04:53:54.395Z,14.73
2023-04-21T04:56:24.231Z,15.47
2023-04-21T04:58:52.448Z,14.97
2023-04-21T05:01:21.088Z,14.40
2023-04-21T05:03:49.184Z,16.07
2023-04-21T05:06:17.446Z,15.10
2023-04-21T05:08:45.912Z,15.57
2023-04-21T05:11:13.996Z,14.87
2023-04-21T05:13:43.522Z,15.03
2023-04-21T05:16:11.707Z,14.80
2023-04-21T05:18:39.757Z,15.83
2023-04-21T05:21:08.409Z,15.77
2023-04-21T05:23:36.440Z,16.27
2023-04-21T05:26:05.057Z,15.07
2023-04-21T05:28:33.344Z,16.10
2023-04-21T05:31:02.855Z,17.03
2023-04-21T05:33:32.066Z,21.30
2023-04-21T05:36:00.348Z,22.33
2023-04-21T05:38:28.407Z,20.07
2023-04-21T05:40:56.812Z,15.53
2023-04-21T05:43:24.966Z,15.00
2023-04-21T05:45:53.160Z,15.10
2023-04-21T05:48:23.522Z,14.43
2023-04-21T05:50:51.593Z,16.30
2023-04-21T05:53:19.648Z,16.03
2023-04-21T05:55:47.748Z,16.47
2023-04-21T05:58:15.759Z,14.50
2023-04-21T06:00:43.971Z,18.57
2023-04-21T06:03:12.200Z,18.77
2023-04-21T06:05:41.774Z,16.00
2023-04-21T06:08:09.851Z,13.80
2023-04-21T06:10:38.062Z,17.93
2023-04-21T06:13:06.146Z,13.93
2023-04-21T06:15:34.268Z,13.43
2023-04-21T06:18:02.358Z,14.37
2023-04-21T06:20:30.469Z,15.10
2023-04-21T06:22:59.868Z,14.50
2023-04-21T06:25:28.199Z,14.00
2023-04-21T06:27:56.447Z,14.53
2023-04-21T06:30:24.714Z,13.47
2023-04-21T06:32:52.747Z,13.97
2023-04-21T06:35:21.471Z,14.10
2023-04-21T06:37:49.533Z,14.13
2023-04-21T06:40:19.189Z,21.57
2023-04-21T06:42:47.200Z,17.90
2023-04-21T06:45:15.526Z,13.67
2023-04-21T06:47:44.063Z,27.87
2023-04-21T06:50:12.301Z,17.70
2023-04-21T06:52:40.323Z,19.37
2023-04-21T06:55:09.341Z,13.10
2023-04-21T06:57:38.662Z,16.83
2023-04-21T07:00:08.026Z,15.80
2023-04-21T07:02:36.180Z,14.90
2023-04-21T07:05:04.762Z,14.63
2023-04-21T07:07:32.783Z,13.70
2023-04-21T07:10:00.934Z,13.60
2023-04-21T07:12:29.037Z,13.90
2023-04-21T07:14:58.637Z,16.80
2023-04-21T07:17:26.920Z,14.90
2023-04-21T07:19:55.026Z,14.20
2023-04-21T07:22:23.093Z,15.02
2023-04-21T07:24:51.403Z,12.35
2023-04-21T07:27:20.281Z,19.85
2023-04-21T07:29:48.361Z,16.17
2023-04-21T07:32:17.798Z,14.07
2023-04-21T07:34:47.069Z,14.35
2023-04-21T07:37:15.130Z,12.02
2023-04-21T07:39:43.514Z,12.15
2023-04-21T07:42:11.939Z,14.25
2023-04-21T07:44:40.053Z,12.25
2023-04-21T07:47:08.203Z,11.48
2023-04-21T07:49:37.713Z,10.73
2023-04-21T07:52:05.776Z,11.32
2023-04-21T07:54:33.853Z,14.13
2023-04-21T07:57:02.590Z,13.45
2023-04-21T07:59:30.831Z,14.82
2023-04-21T08:01:58.916Z,12.68
2023-04-21T08:04:27.439Z,13.80
2023-04-21T08:06:56.940Z,12.50
2023-04-21T08:09:25.155Z,11.90
2023-04-21T08:11:54.017Z,13.40
2023-04-21T08:14:22.296Z,14.10
2023-04-21T08:16:51.112Z,13.73
2023-04-21T08:19:19.694Z,12.30
2023-04-21T08:21:48.008Z,12.40
2023-04-21T08:24:17.715Z,12.15
2023-04-21T08:26:46.048Z,13.35
2023-04-21T08:29:14.285Z,11.70
2023-04-21T08:31:42.601Z,12.35
2023-04-21T08:34:11.026Z,13.02
2023-04-21T08:36:39.092Z,12.40
2023-04-21T08:39:07.181Z,12.50
2023-04-21T08:41:36.648Z,11.85
2023-04-21T08:44:06.079Z,12.25
2023-04-21T08:46:34.818Z,11.70
2023-04-21T08:49:03.460Z,12.18
2023-04-21T08:51:32.134Z,12.40
2023-04-21T08:54:00.222Z,12.55
2023-04-21T08:56:28.589Z,12.25
2023-04-21T08:58:58.068Z,11.68
2023-04-21T09:01:26.181Z,11.65
2023-04-21T09:03:54.573Z,11.90
2023-04-21T09:06:22.857Z,11.85
2023-04-21T09:08:56.642Z,12.25
2023-04-21T09:11:25.804Z,12.45
2023-04-21T09:13:59.695Z,12.52
2023-04-21T09:16:33.176Z,12.75
2023-04-21T09:19:02.103Z,16.02
2023-04-21T09:21:32.413Z,11.77
2023-04-21T09:24:06.709Z,10.90
2023-04-21T09:26:37.502Z,11.75
2023-04-21T09:29:07.724Z,12.23
2023-04-21T09:31:37.327Z,12.32
2023-04-21T09:34:19.778Z,13.13
2023-04-21T09:36:48.563Z,12.55
2023-04-21T09:41:48.138Z,10.43
2023-04-21T09:44:18.467Z,11.85
2023-04-21T09:46:50.766Z,11.70
2023-04-21T09:49:19.537Z,11.35
2023-04-21T09:54:29.759Z,8.98
2023-04-21T09:57:01.974Z,9.85
2023-04-21T09:59:34.338Z,7.72
2023-04-21T10:02:05.852Z,8.80
2023-04-21T10:04:36.267Z,9.23
2023-04-21T10:07:04.900Z,8.27
2023-04-21T10:09:38.064Z,8.50
2023-04-21T10:12:09.186Z,7.38
2023-04-21T10:14:39.395Z,6.75
2023-04-21T10:17:10.082Z,7.00
2023-04-21T10:19:40.778Z,6.95
2023-04-21T10:22:10.501Z,7.70
2023-04-21T10:24:40.189Z,9.70
2023-04-21T10:27:12.257Z,8.32
2023-04-21T10:29:55.243Z,8.55
2023-04-21T10:32:41.941Z,8.55
2023-04-21T10:35:11.272Z,8.35
2023-04-21T10:37:39.505Z,7.63
2023-04-21T10:40:11.050Z,9.18
2023-04-21T10:42:39.119Z,6.75
2023-04-21T10:45:11.797Z,6.85
2023-04-21T10:47:43.011Z,7.20
2023-04-21T10:50:19.609Z,7.72
2023-04-21T10:52:53.601Z,7.22
2023-04-21T10:55:22.669Z,7.35
2023-04-21T10:57:50.975Z,7.97
2023-04-21T11:00:23.071Z,7.60
2023-04-21T11:02:59.412Z,7.60
2023-04-21T11:05:38.477Z,8.65
2023-04-21T11:08:15.094Z,7.93
2023-04-21T11:10:45.121Z,8.18
2023-04-21T11:13:13.210Z,8.50
2023-04-21T11:15:42.891Z,7.63
2023-04-21T11:18:12.196Z,8.15
2023-04-21T11:20:46.193Z,7.72
2023-04-21T11:23:18.899Z,7.53
2023-04-21T11:25:49.515Z,7.13
2023-04-21T11:28:23.292Z,6.63
2023-04-21T11:30:52.976Z,8.60
2023-04-21T11:33:21.410Z,7.47
2023-04-21T11:35:51.693Z,6.60
2023-04-21T11:38:20.016Z,7.22
2023-04-21T11:40:48.826Z,7.10
2023-04-21T11:43:17.153Z,7.60
2023-04-21T11:45:49.693Z,7.20
2023-04-21T11:48:20.677Z,6.13
2023-04-21T11:50:49.371Z,6.10
2023-04-21T11:53:18.003Z,6.15
2023-04-21T11:55:47.192Z,10.80
2023-04-21T11:58:16.585Z,6.20
2023-04-21T12:00:46.810Z,6.70
2023-04-21T12:03:15.222Z,6.63
2023-04-21T12:05:44.839Z,6.50
2023-04-21T12:08:15.992Z,6.70
2023-04-21T12:10:47.433Z,6.60
2023-04-21T12:13:23.496Z,6.95
2023-04-21T12:15:51.815Z,6.18
2023-04-21T12:18:20.036Z,5.82
2023-04-21T12:20:53.467Z,6.43
2023-04-21T12:23:21.609Z,5.60
2023-04-21T12:25:50.142Z,7.47
2023-04-21T12:28:18.960Z,5.70
2023-04-21T12:30:46.950Z,7.10
2023-04-21T12:33:15.216Z,5.13
2023-04-21T12:35:43.383Z,5.53
2023-04-21T12:38:12.937Z,5.93
2023-04-21T12:40:41.050Z,5.25
2023-04-21T12:43:09.163Z,5.05
2023-04-21T12:45:37.423Z,5.65
2023-04-21T12:48:05.489Z,6.13
2023-04-21T12:50:33.525Z,6.07
2023-04-21T12:53:01.676Z,5.80
2023-04-21T12:55:31.083Z,5.60
2023-04-21T12:57:59.633Z,5.15
2023-04-21T13:00:28.570Z,5.60
2023-04-21T13:02:56.827Z,6.07
2023-04-21T13:05:25.539Z,6.43
2023-04-21T13:07:54.425Z,6.50
2023-04-21T13:10:22.583Z,5.97
2023-04-21T13:12:52.058Z,5.47
2023-04-21T13:15:20.128Z,4.95
2023-04-21T13:17:48.440Z,6.18
2023-04-21T13:20:19.232Z,5.15
2023-04-21T13:22:47.507Z,5.78
2023-04-21T13:25:15.598Z,5.32
2023-04-21T13:27:43.798Z,5.03
2023-04-21T13:30:15.939Z,4.97
2023-04-21T13:32:45.070Z,4.97
2023-04-21T13:35:13.198Z,6.10
2023-04-21T13:37:42.496Z,5.88
2023-04-21T13:40:12.076Z,5.95
2023-04-21T13:42:40.733Z,5.40
2023-04-21T13:45:09.785Z,5.00
2023-04-21T13:47:39.489Z,5.43
2023-04-21T13:50:09.174Z,5.20
2023-04-21T13:52:37.432Z,5.60
2023-04-21T13:55:06.296Z,5.07
2023-04-21T13:57:34.572Z,5.32
2023-04-21T14:00:03.875Z,5.85
2023-04-21T14:02:32.430Z,5.05
2023-04-21T14:05:02.535Z,5.75
2023-04-21T14:07:31.421Z,5.45
2023-04-21T14:09:59.634Z,5.40
2023-04-21T14:12:27.720Z,5.30
2023-04-21T14:14:55.846Z,5.32
2023-04-21T14:17:24.344Z,6.43
2023-04-21T14:19:54.541Z,5.60
2023-04-21T14:22:24.779Z,6.80
2023-04-21T14:24:52.925Z,5.43
2023-04-21T14:27:21.357Z,5.68
2023-04-21T14:29:49.384Z,6.38
2023-04-21T14:32:20.518Z,7.93
2023-04-21T14:34:53.315Z,5.70
2023-04-21T14:37:21.968Z,8.23
2023-04-21T14:39:52.961Z,5.90
2023-04-21T14:42:21.426Z,6.20
2023-04-21T14:44:49.552Z,5.57
2023-04-21T14:47:17.981Z,5.60
2023-04-21T14:49:46.374Z,6.22
2023-04-21T14:52:15.007Z,5.72
2023-04-21T14:54:43.050Z,6.07
2023-04-21T14:57:20.644Z,6.80
2023-04-21T14:59:50.784Z,6.20
2023-04-21T15:02:19.154Z,5.75
2023-04-21T15:04:47.835Z,5.93
2023-04-21T15:07:19.825Z,5.80
2023-04-21T15:09:51.942Z,5.30
2023-04-21T15:12:21.502Z,6.07
2023-04-21T15:14:49.697Z,6.15
2023-04-21T15:17:17.800Z,6.20
2023-04-21T15:19:45.915Z,6.65
2023-04-21T15:22:15.372Z,5.32
2023-04-21T15:24:43.604Z,5.13
2023-04-21T15:27:11.689Z,5.88
2023-04-21T15:29:41.238Z,5.78
2023-04-21T15:32:09.664Z,5.88
2023-04-21T15:34:37.739Z,5.82
2023-04-21T15:37:05.848Z,5.93
2023-04-21T15:39:33.996Z,6.00
2023-04-21T15:42:04.439Z,5.60
2023-04-21T15:44:34.106Z,5.60
2023-04-21T15:47:03.886Z,6.22
2023-04-21T15:49:32.012Z,8.00
2023-04-21T15:52:00.174Z,6.53
2023-04-21T15:54:28.265Z,4.97
2023-04-21T15:56:57.700Z,5.15
2023-04-21T15:59:26.352Z,5.80
2023-04-21T16:01:54.867Z,5.40
2023-04-21T16:04:24.559Z,4.95
2023-04-21T16:06:52.857Z,8.05
2023-04-21T16:09:21.906Z,5.35
2023-04-21T16:11:51.510Z,5.13
2023-04-21T16:14:19.944Z,5.20
2023-04-21T16:16:48.124Z,5.82
2023-04-21T16:19:16.663Z,5.20
2023-04-21T16:21:46.155Z,5.38
2023-04-21T16:24:14.322Z,6.65
2023-04-21T16:26:42.458Z,5.28
2023-04-21T16:29:10.560Z,6.18
2023-04-21T16:31:38.723Z,5.65
2023-04-21T16:34:06.838Z,7.00
2023-04-21T16:36:35.159Z,7.18
2023-04-21T16:39:04.628Z,6.20
2023-04-21T16:41:32.791Z,5.88
2023-04-21T16:44:00.883Z,6.70
2023-04-21T16:46:29.348Z,10.48
2023-04-21T16:48:57.463Z,6.80
2023-04-21T16:51:26.989Z,6.05
2023-04-21T16:53:56.642Z,6.57
2023-04-21T16:56:26.149Z,5.90
2023-04-21T16:58:54.377Z,7.07
2023-04-21T17:01:22.529Z,6.03
2023-04-21T17:03:50.831Z,6.03
2023-04-21T17:06:21.364Z,15.77
2023-04-21T17:08:49.886Z,5.72
2023-04-21T17:11:17.879Z,5.97
2023-04-21T17:13:47.315Z,9.00
2023-04-21T17:16:15.886Z,7.10
2023-04-21T17:18:43.988Z,7.20
2023-04-21T17:21:12.609Z,5.82
2023-04-21T17:23:40.958Z,7.07
2023-04-21T17:26:11.579Z,6.13
2023-04-21T17:28:41.517Z,9.77
2023-04-21T17:31:15.626Z,8.70
2023-04-21T17:33:44.351Z,8.75
2023-04-21T17:36:12.754Z,5.85
2023-04-21T17:38:42.883Z,9.10
2023-04-21T17:41:11.572Z,9.18
2023-04-21T17:43:39.673Z,10.65
2023-04-21T17:46:08.285Z,8.10
2023-04-21T17:48:38.365Z,8.68
2023-04-21T17:51:06.617Z,9.30
2023-04-21T17:53:34.746Z,8.65
2023-04-21T17:56:03.032Z,9.75
2023-04-21T17:58:31.010Z,8.10
2023-04-21T18:00:59.270Z,8.68
2023-04-21T18:03:27.598Z,20.95
2023-04-21T18:05:57.606Z,13.65
2023-04-21T18:08:26.450Z,9.63
2023-04-21T18:10:55.552Z,11.20
2023-04-21T18:13:23.580Z,12.18
2023-04-21T18:15:51.879Z,11.65
2023-04-21T18:18:19.978Z,12.50
2023-04-21T18:20:48.363Z,12.65
2023-04-21T18:23:17.782Z,7.80
2023-04-21T18:25:45.956Z,9.90
2023-04-21T18:28:14.407Z,12.63
2023-04-21T18:30:42.916Z,14.88
2023-04-21T18:33:11.761Z,13.52
2023-04-21T18:35:40.241Z,15.85
2023-04-21T18:38:10.549Z,23.42
2023-04-21T18:40:40.859Z,16.25
2023-04-21T18:43:09.783Z,12.55
2023-04-21T18:45:38.074Z,14.77
2023-04-21T18:48:06.403Z,13.48
2023-04-21T18:50:39.490Z,17.52
2023-04-21T18:53:08.591Z,19.83
2023-04-21T18:55:37.474Z,20.05
2023-04-21T18:58:07.157Z,12.70
2023-04-21T19:00:37.743Z,12.48
2023-04-21T19:03:07.103Z,13.27
2023-04-21T19:05:36.848Z,12.90
2023-04-21T19:08:05.236Z,10.90
2023-04-21T19:10:35.540Z,10.80
2023-04-21T19:13:03.631Z,10.40
2023-04-21T19:15:33.090Z,12.53
2023-04-21T19:18:01.324Z,11.07
2023-04-21T19:20:30.326Z,11.50
2023-04-21T19:22:58.411Z,13.37
2023-04-21T19:25:26.434Z,16.83
2023-04-21T19:27:54.562Z,13.03
2023-04-21T19:30:22.840Z,12.30
2023-04-21T19:32:52.322Z,11.83
2023-04-21T19:35:20.945Z,12.33
2023-04-21T19:37:48.983Z,14.63
2023-04-21T19:40:17.167Z,12.80
2023-04-21T19:42:45.334Z,12.23
2023-04-21T19:45:13.355Z,12.53
2023-04-21T19:47:41.420Z,13.00
2023-04-21T19:50:12.946Z,12.73
2023-04-21T19:52:41.019Z,14.17
2023-04-21T19:55:09.817Z,13.47
2023-04-21T19:57:37.906Z,13.73
2023-04-21T20:00:09.240Z,12.37
2023-04-21T20:02:40.372Z,12.73
2023-04-21T20:05:10.976Z,12.77
2023-04-21T20:07:39.774Z,12.50
2023-04-21T20:10:08.630Z,12.97
2023-04-21T20:12:36.924Z,17.90
2023-04-21T20:15:06.132Z,15.23
2023-04-21T20:17:34.322Z,17.57
2023-04-21T20:20:03.386Z,22.17
2023-04-21T20:22:32.838Z,17.10
2023-04-21T20:25:00.947Z,16.53
2023-04-21T20:27:28.969Z,11.90
2023-04-21T20:29:56.974Z,11.80
2023-04-21T20:32:25.158Z,12.87
2023-04-21T20:34:54.101Z,12.83
2023-04-21T20:37:23.143Z,12.57
2023-04-21T20:39:52.794Z,14.67
2023-04-21T20:42:21.909Z,13.43
2023-04-21T20:44:50.192Z,12.87
2023-04-21T20:47:18.287Z,14.57
2023-04-21T20:49:47.392Z,13.13
2023-04-21T20:52:16.052Z,13.10
2023-04-21T20:54:44.136Z,15.23
2023-04-21T20:57:13.578Z,13.93
2023-04-21T20:59:41.834Z,18.93
2023-04-21T21:02:10.214Z,18.87
2023-04-21T21:04:38.351Z,14.47
2023-04-21T21:07:06.510Z,15.53
2023-04-21T21:09:34.616Z,12.57
2023-04-21T21:12:03.542Z,13.50
2023-04-21T21:14:32.954Z,12.73
2023-04-21T21:17:01.502Z,13.90
2023-04-21T21:19:29.786Z,15.23
2023-04-21T21:21:57.903Z,15.60
2023-04-21T21:24:26.490Z,15.20
2023-04-21T21:26:54.535Z,15.37
2023-04-21T21:29:22.602Z,16.03
2023-04-21T21:31:52.102Z,15.40
2023-04-21T21:34:20.294Z,16.37
2023-04-21T21:36:48.414Z,15.07
2023-04-21T21:39:16.527Z,14.50
2023-04-21T21:41:44.493Z,16.83
2023-04-21T21:44:12.626Z,17.20
2023-04-21T21:46:41.295Z,15.73
2023-04-21T21:49:11.485Z,16.50
2023-04-21T21:51:39.594Z,17.50
2023-04-21T21:54:07.588Z,16.93
2023-04-21T21:56:36.661Z,16.67
2023-04-21T21:59:04.738Z,17.53
2023-04-21T22:01:32.970Z,16.10
2023-04-21T22:04:01.241Z,16.60
2023-04-21T22:06:32.670Z,16.43
2023-04-21T22:09:00.805Z,15.57
2023-04-21T22:11:28.839Z,15.60
2023-04-21T22:14:00.629Z,16.13
2023-04-21T22:16:34.552Z,15.87
2023-04-21T22:19:03.558Z,15.60
2023-04-21T22:21:33.032Z,15.47
2023-04-21T22:24:01.020Z,16.77
2023-04-21T22:26:29.078Z,15.70
2023-04-21T22:28:57.225Z,16.10
2023-04-21T22:31:25.313Z,13.83
2023-04-21T22:33:53.410Z,16.80
2023-04-21T22:36:21.453Z,16.97
2023-04-21T22:38:50.995Z,15.10
2023-04-21T22:41:19.040Z,17.50
2023-04-21T22:43:47.119Z,17.70
2023-04-21T22:46:15.341Z,14.27
2023-04-21T22:48:46.540Z,14.70
2023-04-21T22:51:14.990Z,14.20
2023-04-21T22:53:42.987Z,14.40
2023-04-21T22:56:12.364Z,15.13
2023-04-21T22:58:41.689Z,13.27
2023-04-21T23:01:09.845Z,15.00
2023-04-21T23:03:38.065Z,13.00
2023-04-21T23:06:06.416Z,15.20
2023-04-21T23:08:34.623Z,13.90
2023-04-21T23:11:04.204Z,13.30
2023-04-21T23:13:33.752Z,12.80
2023-04-21T23:16:02.370Z,13.00
2023-04-21T23:18:30.543Z,14.03
2023-04-21T23:20:59.040Z,14.10
2023-04-21T23:23:27.196Z,13.90
2023-04-21T23:25:55.218Z,13.93
2023-04-21T23:28:24.397Z,13.97
2023-04-21T23:30:53.861Z,12.83
2023-04-21T23:33:21.956Z,11.73
2023-04-21T23:35:50.061Z,12.20
2023-04-21T23:38:18.181Z,11.97
2023-04-21T23:40:46.178Z,11.63
2023-04-21T23:43:14.389Z,12.57
2023-04-21T23:45:42.576Z,11.37
2023-04-21T23:48:12.035Z,14.77
2023-04-21T23:50:40.243Z,15.43
2023-04-21T23:53:08.239Z,14.27
2023-04-21T23:55:36.315Z,14.53
2023-04-21T23:58:04.521Z,13.13
